Terminal Aerodrome Forecast
Issued by NWS Springfield, MO

Home | Current Version | Previous Version | Text Only | Print | Product List | Glossary On
Versions: 1 2 3 4 5 6 7 8 9 10 11 12 13 14 15 16 17 18 19 20
000
FTUS43 KSGF 222300 AAA
TAFSGF
TAF AMD
KSGF 222303Z 2223/2318 20010KT P6SM -RA SCT007 BKN015 OVC035
     FM230200 27010KT P6SM SCT025 BKN035
     FM230400 25008KT P6SM SCT025
     FM230600 21005KT P6SM BKN100=

USA.gov is the U.S. government's official web portal to all federal, state and local government web resources and services.